KMGM

Montgomery Regional (Dannelly Field) Airport

Montgomery, Alabama, USA
METAR KMGM 221353Z 08007KT 10SM CLR 11/06 A3030 RMK AO2 SLP260 T01110061
Observed Flight Rules
Oct-22 @ 13:53 UTC (26 minutes ago) Visual Flight Rules
Wind Visibility Clouds
80° at 7 knots 10 miles
  • Clear skies
Temperatures Readings
Current 11°C / 52°F
Dewpoint 6°C / 43°F
Humidity 72%
Altimeter 30.3" Hg
Pressure 1026 hPa
Elevation 63
METAR KMGM 221353Z 08007KT 10SM CLR 11/06 A3030 RMK AO2 SLP260 T01110061
Observed Flight Rules
Oct-22 @ 13:53 UTC
(26 minutes ago)
VFR
Wind Visibility
80° at 7 knots 10 miles
Clouds
  • Clear skies
Temperature Dewpoint
11°C / 52°F 6°C / 43°F
Humidity Altimeter Pressure
72% 30.3" Hg 1026 hPa